sensor_id;sensor_type;location;lat;lon;timestamp;pressure;altitude;pressure_sealevel;temperature;humidity
12775;BME280;6451;42.630;23.382;2022-11-12T00:00:38;95753.56;;;9.23;100.00
12775;BME280;6451;42.630;23.382;2022-11-12T00:03:07;95741.06;;;9.13;100.00
12775;BME280;6451;42.630;23.382;2022-11-12T00:05:34;95738.53;;;9.17;100.00
12775;BME280;6451;42.630;23.382;2022-11-12T00:08:02;95745.72;;;9.35;100.00
12775;BME280;6451;42.630;23.382;2022-11-12T00:10:29;95745.63;;;9.40;100.00
12775;BME280;6451;42.630;23.382;2022-11-12T00:12:57;95742.59;;;9.42;100.00
12775;BME280;6451;42.630;23.382;2022-11-12T00:15:24;95736.75;;;9.48;100.00
12775;BME280;6451;42.630;23.382;2022-11-12T00:17:52;95740.50;;;9.39;100.00
12775;BME280;6451;42.630;23.382;2022-11-12T00:20:20;95739.00;;;9.46;100.00
12775;BME280;6451;42.630;23.382;2022-11-12T00:22:46;95720.97;;;9.28;100.00
12775;BME280;6451;42.630;23.382;2022-11-12T00:25:15;95759.38;;;9.30;100.00
12775;BME280;6451;42.630;23.382;2022-11-12T00:27:42;95728.88;;;9.25;100.00
12775;BME280;6451;42.630;23.382;2022-11-12T00:30:09;95743.22;;;9.25;100.00
12775;BME280;6451;42.630;23.382;2022-11-12T00:32:37;95756.19;;;9.28;100.00
12775;BME280;6451;42.630;23.382;2022-11-12T00:35:05;95746.53;;;9.36;100.00
12775;BME280;6451;42.630;23.382;2022-11-12T00:37:32;95746.81;;;9.34;100.00
12775;BME280;6451;42.630;23.382;2022-11-12T00:39:59;95710.06;;;9.06;100.00
12775;BME280;6451;42.630;23.382;2022-11-12T00:42:27;95693.34;;;8.90;100.00
12775;BME280;6451;42.630;23.382;2022-11-12T00:44:54;95749.66;;;9.29;100.00
12775;BME280;6451;42.630;23.382;2022-11-12T00:47:21;95754.16;;;9.20;100.00
12775;BME280;6451;42.630;23.382;2022-11-12T00:49:48;95752.16;;;9.12;100.00
12775;BME280;6451;42.630;23.382;2022-11-12T00:52:15;95734.34;;;8.97;100.00
12775;BME280;6451;42.630;23.382;2022-11-12T00:54:43;95739.16;;;9.00;100.00
12775;BME280;6451;42.630;23.382;2022-11-12T00:57:10;95694.44;;;8.75;100.00
12775;BME280;6451;42.630;23.382;2022-11-12T00:59:38;95701.47;;;8.90;100.00
12775;BME280;6451;42.630;23.382;2022-11-12T01:02:06;95742.34;;;9.16;100.00
12775;BME280;6451;42.630;23.382;2022-11-12T01:04:35;95724.69;;;9.18;100.00
12775;BME280;6451;42.630;23.382;2022-11-12T01:07:03;95727.31;;;9.10;100.00
12775;BME280;6451;42.630;23.382;2022-11-12T01:09:30;95714.66;;;9.19;100.00
12775;BME280;6451;42.630;23.382;2022-11-12T01:11:58;95702.44;;;9.08;100.00
12775;BME280;6451;42.630;23.382;2022-11-12T01:14:25;95733.19;;;9.26;100.00
12775;BME280;6451;42.630;23.382;2022-11-12T01:16:54;95730.09;;;9.18;100.00
12775;BME280;6451;42.630;23.382;2022-11-12T01:19:21;95731.91;;;9.09;100.00
12775;BME280;6451;42.630;23.382;2022-11-12T01:21:48;95734.53;;;9.01;100.00
12775;BME280;6451;42.630;23.382;2022-11-12T01:24:17;95730.94;;;8.91;100.00
12775;BME280;6451;42.630;23.382;2022-11-12T01:26:44;95737.94;;;8.93;100.00
12775;BME280;6451;42.630;23.382;2022-11-12T01:29:11;95701.94;;;8.51;100.00
12775;BME280;6451;42.630;23.382;2022-11-12T01:31:39;95732.09;;;8.58;100.00
12775;BME280;6451;42.630;23.382;2022-11-12T01:34:08;95710.66;;;8.48;100.00
12775;BME280;6451;42.630;23.382;2022-11-12T01:36:37;95730.50;;;8.57;100.00
12775;BME280;6451;42.630;23.382;2022-11-12T01:39:07;95727.31;;;8.69;100.00
12775;BME280;6451;42.630;23.382;2022-11-12T01:41:38;95710.47;;;8.72;100.00
12775;BME280;6451;42.630;23.382;2022-11-12T01:44:24;95719.19;;;8.82;100.00
12775;BME280;6451;42.630;23.382;2022-11-12T01:46:58;95685.72;;;8.64;100.00
12775;BME280;6451;42.630;23.382;2022-11-12T01:49:31;95708.78;;;8.76;100.00
12775;BME280;6451;42.630;23.382;2022-11-12T01:52:07;95707.75;;;8.72;100.00
12775;BME280;6451;42.630;23.382;2022-11-12T01:54:38;95700.03;;;8.65;100.00
12775;BME280;6451;42.630;23.382;2022-11-12T01:57:06;95709.47;;;8.54;100.00
12775;BME280;6451;42.630;23.382;2022-11-12T01:59:38;95716.66;;;8.58;100.00
12775;BME280;6451;42.630;23.382;2022-11-12T02:02:07;95667.72;;;8.27;100.00
12775;BME280;6451;42.630;23.382;2022-11-12T02:04:37;95676.09;;;8.45;100.00
12775;BME280;6451;42.630;23.382;2022-11-12T02:07:05;95699.13;;;8.56;100.00
12775;BME280;6451;42.630;23.382;2022-11-12T02:09:35;95682.88;;;8.42;100.00
12775;BME280;6451;42.630;23.382;2022-11-12T02:12:03;95714.19;;;8.62;100.00
12775;BME280;6451;42.630;23.382;2022-11-12T02:14:30;95678.69;;;8.50;100.00
12775;BME280;6451;42.630;23.382;2022-11-12T02:16:57;95713.06;;;8.63;100.00
12775;BME280;6451;42.630;23.382;2022-11-12T02:19:25;95702.44;;;8.53;100.00
12775;BME280;6451;42.630;23.382;2022-11-12T02:21:53;95714.78;;;8.73;100.00
12775;BME280;6451;42.630;23.382;2022-11-12T02:24:35;95713.88;;;8.63;100.00
12775;BME280;6451;42.630;23.382;2022-11-12T02:27:05;95716.38;;;8.60;100.00
12775;BME280;6451;42.630;23.382;2022-11-12T02:29:32;95721.78;;;8.60;100.00
12775;BME280;6451;42.630;23.382;2022-11-12T02:31:59;95715.47;;;8.64;100.00
12775;BME280;6451;42.630;23.382;2022-11-12T02:34:26;95672.19;;;8.37;100.00
12775;BME280;6451;42.630;23.382;2022-11-12T02:36:54;95708.97;;;8.52;100.00
12775;BME280;6451;42.630;23.382;2022-11-12T02:39:21;95697.19;;;8.29;100.00
12775;BME280;6451;42.630;23.382;2022-11-12T02:41:49;95716.97;;;8.57;100.00
12775;BME280;6451;42.630;23.382;2022-11-12T02:44:16;95717.50;;;8.59;100.00
12775;BME280;6451;42.630;23.382;2022-11-12T02:46:43;95703.41;;;8.43;100.00
12775;BME280;6451;42.630;23.382;2022-11-12T02:49:10;95711.75;;;8.47;100.00
12775;BME280;6451;42.630;23.382;2022-11-12T02:51:36;95709.06;;;8.60;100.00
12775;BME280;6451;42.630;23.382;2022-11-12T02:54:05;95703.56;;;8.52;100.00
12775;BME280;6451;42.630;23.382;2022-11-12T02:56:32;95715.38;;;8.56;100.00
12775;BME280;6451;42.630;23.382;2022-11-12T02:59:00;95696.13;;;8.57;100.00
12775;BME280;6451;42.630;23.382;2022-11-12T03:01:26;95698.03;;;8.57;100.00
12775;BME280;6451;42.630;23.382;2022-11-12T03:03:53;95674.78;;;8.42;100.00
12775;BME280;6451;42.630;23.382;2022-11-12T03:06:20;95694.81;;;8.55;100.00
12775;BME280;6451;42.630;23.382;2022-11-12T03:08:48;95703.25;;;8.53;100.00
12775;BME280;6451;42.630;23.382;2022-11-12T03:11:16;95691.53;;;8.44;100.00
12775;BME280;6451;42.630;23.382;2022-11-12T03:13:43;95691.91;;;8.38;100.00
12775;BME280;6451;42.630;23.382;2022-11-12T03:16:10;95656.19;;;8.08;100.00
12775;BME280;6451;42.630;23.382;2022-11-12T03:18:37;95686.13;;;8.25;100.00
12775;BME280;6451;42.630;23.382;2022-11-12T03:21:04;95694.06;;;8.22;100.00
12775;BME280;6451;42.630;23.382;2022-11-12T03:23:31;95694.34;;;8.20;100.00
12775;BME280;6451;42.630;23.382;2022-11-12T03:26:01;95707.84;;;8.20;100.00
12775;BME280;6451;42.630;23.382;2022-11-12T03:28:30;95672.72;;;7.88;100.00
12775;BME280;6451;42.630;23.382;2022-11-12T03:30:57;95708.72;;;8.02;100.00
12775;BME280;6451;42.630;23.382;2022-11-12T03:33:24;95649.44;;;7.59;100.00
12775;BME280;6451;42.630;23.382;2022-11-12T03:35:51;95711.66;;;8.05;100.00
12775;BME280;6451;42.630;23.382;2022-11-12T03:38:18;95713.31;;;8.01;100.00
12775;BME280;6451;42.630;23.382;2022-11-12T03:40:45;95709.44;;;8.07;100.00
12775;BME280;6451;42.630;23.382;2022-11-12T03:43:12;95693.25;;;7.89;100.00
12775;BME280;6451;42.630;23.382;2022-11-12T03:45:40;95716.63;;;7.98;100.00
12775;BME280;6451;42.630;23.382;2022-11-12T03:48:07;95714.94;;;8.02;100.00
12775;BME280;6451;42.630;23.382;2022-11-12T03:50:33;95695.81;;;7.99;100.00
12775;BME280;6451;42.630;23.382;2022-11-12T03:53:01;95675.66;;;7.91;100.00
12775;BME280;6451;42.630;23.382;2022-11-12T03:55:29;95711.91;;;8.04;100.00
12775;BME280;6451;42.630;23.382;2022-11-12T03:57:56;95713.66;;;8.14;100.00
12775;BME280;6451;42.630;23.382;2022-11-12T04:00:25;95696.81;;;8.03;100.00
12775;BME280;6451;42.630;23.382;2022-11-12T04:02:53;95718.78;;;8.15;100.00
12775;BME280;6451;42.630;23.382;2022-11-12T04:05:21;95711.34;;;8.07;100.00
12775;BME280;6451;42.630;23.382;2022-11-12T04:08:06;95708.22;;;8.00;100.00
12775;BME280;6451;42.630;23.382;2022-11-12T04:10:53;95680.59;;;7.70;100.00
12775;BME280;6451;42.630;23.382;2022-11-12T04:13:20;95705.47;;;7.86;100.00
12775;BME280;6451;42.630;23.382;2022-11-12T04:16:06;95711.38;;;7.88;100.00
12775;BME280;6451;42.630;23.382;2022-11-12T04:18:54;95702.97;;;7.90;100.00
12775;BME280;6451;42.630;23.382;2022-11-12T04:21:42;95701.03;;;7.76;100.00
12775;BME280;6451;42.630;23.382;2022-11-12T04:24:24;95703.25;;;7.74;100.00
12775;BME280;6451;42.630;23.382;2022-11-12T04:27:10;95706.56;;;7.66;100.00
12775;BME280;6451;42.630;23.382;2022-11-12T04:29:38;95698.88;;;7.60;100.00
12775;BME280;6451;42.630;23.382;2022-11-12T04:32:23;95690.09;;;7.49;100.00
12775;BME280;6451;42.630;23.382;2022-11-12T04:34:53;95679.53;;;7.52;100.00
12775;BME280;6451;42.630;23.382;2022-11-12T04:37:20;95688.88;;;7.60;100.00
12775;BME280;6451;42.630;23.382;2022-11-12T04:39:47;95688.72;;;7.51;100.00
12775;BME280;6451;42.630;23.382;2022-11-12T04:42:14;95679.09;;;7.45;100.00
12775;BME280;6451;42.630;23.382;2022-11-12T04:44:59;95694.34;;;7.55;100.00
12775;BME280;6451;42.630;23.382;2022-11-12T04:47:32;95700.97;;;7.63;100.00
12775;BME280;6451;42.630;23.382;2022-11-12T04:50:02;95700.56;;;7.37;100.00
12775;BME280;6451;42.630;23.382;2022-11-12T04:52:29;95686.81;;;7.33;100.00
12775;BME280;6451;42.630;23.382;2022-11-12T04:54:59;95700.09;;;7.48;100.00
12775;BME280;6451;42.630;23.382;2022-11-12T04:57:26;95698.34;;;7.58;100.00
12775;BME280;6451;42.630;23.382;2022-11-12T04:59:52;95698.44;;;7.52;100.00
12775;BME280;6451;42.630;23.382;2022-11-12T05:02:19;95685.38;;;7.41;100.00
12775;BME280;6451;42.630;23.382;2022-11-12T05:04:47;95707.97;;;7.64;100.00
12775;BME280;6451;42.630;23.382;2022-11-12T05:07:15;95714.34;;;7.54;100.00
12775;BME280;6451;42.630;23.382;2022-11-12T05:09:43;95705.63;;;7.57;100.00
12775;BME280;6451;42.630;23.382;2022-11-12T05:12:10;95721.41;;;7.69;100.00
12775;BME280;6451;42.630;23.382;2022-11-12T05:14:37;95725.25;;;7.81;100.00
12775;BME280;6451;42.630;23.382;2022-11-12T05:17:04;95729.22;;;7.70;100.00
12775;BME280;6451;42.630;23.382;2022-11-12T05:19:32;95729.06;;;7.80;100.00
12775;BME280;6451;42.630;23.382;2022-11-12T05:22:00;95733.88;;;7.84;100.00
12775;BME280;6451;42.630;23.382;2022-11-12T05:24:39;95730.09;;;7.85;100.00
12775;BME280;6451;42.630;23.382;2022-11-12T05:27:08;95733.28;;;7.87;100.00
12775;BME280;6451;42.630;23.382;2022-11-12T05:29:36;95692.81;;;7.81;100.00
12775;BME280;6451;42.630;23.382;2022-11-12T05:32:04;95726.34;;;7.99;100.00
12775;BME280;6451;42.630;23.382;2022-11-12T05:34:31;95727.72;;;7.97;100.00
12775;BME280;6451;42.630;23.382;2022-11-12T05:37:00;95733.34;;;8.00;100.00
12775;BME280;6451;42.630;23.382;2022-11-12T05:39:27;95717.69;;;7.84;100.00
12775;BME280;6451;42.630;23.382;2022-11-12T05:41:56;95730.72;;;7.95;100.00
12775;BME280;6451;42.630;23.382;2022-11-12T05:44:23;95722.78;;;7.85;100.00
12775;BME280;6451;42.630;23.382;2022-11-12T05:46:51;95709.00;;;7.68;100.00
12775;BME280;6451;42.630;23.382;2022-11-12T05:49:19;95724.63;;;7.71;100.00
12775;BME280;6451;42.630;23.382;2022-11-12T05:51:46;95736.66;;;7.78;100.00
12775;BME280;6451;42.630;23.382;2022-11-12T05:54:13;95732.13;;;7.93;100.00
12775;BME280;6451;42.630;23.382;2022-11-12T05:56:40;95730.53;;;7.92;100.00
12775;BME280;6451;42.630;23.382;2022-11-12T05:59:11;95713.22;;;7.74;100.00
12775;BME280;6451;42.630;23.382;2022-11-12T06:01:39;95731.31;;;7.92;100.00
12775;BME280;6451;42.630;23.382;2022-11-12T06:04:09;95742.00;;;8.16;100.00
12775;BME280;6451;42.630;23.382;2022-11-12T06:06:36;95737.91;;;8.65;100.00
12775;BME280;6451;42.630;23.382;2022-11-12T06:09:04;95738.34;;;9.00;100.00
12775;BME280;6451;42.630;23.382;2022-11-12T06:11:31;95746.34;;;8.77;100.00
12775;BME280;6451;42.630;23.382;2022-11-12T06:13:58;95745.75;;;8.94;100.00
12775;BME280;6451;42.630;23.382;2022-11-12T06:16:27;95738.31;;;8.72;100.00
12775;BME280;6451;42.630;23.382;2022-11-12T06:18:55;95729.00;;;8.78;100.00
12775;BME280;6451;42.630;23.382;2022-11-12T06:21:23;95738.72;;;8.79;100.00
12775;BME280;6451;42.630;23.382;2022-11-12T06:23:54;95739.84;;;8.92;100.00
12775;BME280;6451;42.630;23.382;2022-11-12T06:26:22;95743.66;;;8.91;100.00
12775;BME280;6451;42.630;23.382;2022-11-12T06:28:49;95716.38;;;8.74;100.00
12775;BME280;6451;42.630;23.382;2022-11-12T06:31:17;95750.34;;;8.80;100.00
12775;BME280;6451;42.630;23.382;2022-11-12T06:33:46;95719.97;;;8.55;100.00
12775;BME280;6451;42.630;23.382;2022-11-12T06:36:15;95708.16;;;8.65;100.00
12775;BME280;6451;42.630;23.382;2022-11-12T06:38:42;95704.81;;;8.41;100.00
12775;BME280;6451;42.630;23.382;2022-11-12T06:41:10;95747.75;;;8.88;100.00
12775;BME280;6451;42.630;23.382;2022-11-12T06:43:40;95751.69;;;8.82;100.00
12775;BME280;6451;42.630;23.382;2022-11-12T06:46:10;95737.91;;;8.65;100.00
12775;BME280;6451;42.630;23.382;2022-11-12T06:48:38;95748.94;;;8.55;100.00
12775;BME280;6451;42.630;23.382;2022-11-12T06:51:09;95755.63;;;8.44;100.00
12775;BME280;6451;42.630;23.382;2022-11-12T06:53:36;95761.47;;;8.64;100.00
12775;BME280;6451;42.630;23.382;2022-11-12T06:56:05;95753.03;;;8.66;100.00
12775;BME280;6451;42.630;23.382;2022-11-12T06:58:34;95750.88;;;8.68;100.00
12775;BME280;6451;42.630;23.382;2022-11-12T07:01:05;95733.31;;;8.66;100.00
12775;BME280;6451;42.630;23.382;2022-11-12T07:03:33;95745.88;;;8.75;100.00
12775;BME280;6451;42.630;23.382;2022-11-12T07:06:10;95760.41;;;9.07;100.00
12775;BME280;6451;42.630;23.382;2022-11-12T07:08:38;95755.38;;;9.00;100.00
12775;BME280;6451;42.630;23.382;2022-11-12T07:11:06;95752.56;;;9.19;100.00
12775;BME280;6451;42.630;23.382;2022-11-12T07:13:34;95720.28;;;8.81;100.00
12775;BME280;6451;42.630;23.382;2022-11-12T07:16:02;95750.16;;;9.31;100.00
12775;BME280;6451;42.630;23.382;2022-11-12T07:18:30;95748.56;;;9.30;100.00
12775;BME280;6451;42.630;23.382;2022-11-12T07:20:59;95750.47;;;9.66;100.00
12775;BME280;6451;42.630;23.382;2022-11-12T07:23:29;95755.75;;;9.35;100.00
12775;BME280;6451;42.630;23.382;2022-11-12T07:25:58;95722.09;;;9.50;100.00
12775;BME280;6451;42.630;23.382;2022-11-12T07:28:25;95749.78;;;9.74;100.00
12775;BME280;6451;42.630;23.382;2022-11-12T07:30:59;95742.31;;;9.80;100.00
12775;BME280;6451;42.630;23.382;2022-11-12T07:33:27;95706.16;;;9.48;100.00
12775;BME280;6451;42.630;23.382;2022-11-12T07:36:00;95731.78;;;9.78;100.00
12775;BME280;6451;42.630;23.382;2022-11-12T07:38:30;95728.63;;;9.85;100.00
12775;BME280;6451;42.630;23.382;2022-11-12T07:41:00;95731.97;;;10.04;100.00
12775;BME280;6451;42.630;23.382;2022-11-12T07:43:27;95751.56;;;10.01;100.00
12775;BME280;6451;42.630;23.382;2022-11-12T07:45:57;95748.19;;;10.18;100.00
12775;BME280;6451;42.630;23.382;2022-11-12T07:48:24;95716.50;;;9.82;100.00
12775;BME280;6451;42.630;23.382;2022-11-12T07:50:51;95754.59;;;9.99;100.00
12775;BME280;6451;42.630;23.382;2022-11-12T07:53:18;95742.00;;;10.03;100.00
12775;BME280;6451;42.630;23.382;2022-11-12T07:55:53;95751.19;;;9.94;100.00
12775;BME280;6451;42.630;23.382;2022-11-12T07:58:21;95750.78;;;10.00;100.00
12775;BME280;6451;42.630;23.382;2022-11-12T08:00:48;95746.75;;;9.75;100.00
12775;BME280;6451;42.630;23.382;2022-11-12T08:03:21;95753.88;;;9.71;100.00
12775;BME280;6451;42.630;23.382;2022-11-12T08:05:49;95763.81;;;9.76;100.00
12775;BME280;6451;42.630;23.382;2022-11-12T08:08:16;95763.88;;;9.48;100.00
12775;BME280;6451;42.630;23.382;2022-11-12T08:10:43;95754.38;;;9.37;100.00
12775;BME280;6451;42.630;23.382;2022-11-12T08:13:11;95768.09;;;9.41;100.00
12775;BME280;6451;42.630;23.382;2022-11-12T08:15:38;95746.81;;;9.34;100.00
12775;BME280;6451;42.630;23.382;2022-11-12T08:18:05;95766.16;;;9.55;100.00
12775;BME280;6451;42.630;23.382;2022-11-12T08:20:32;95733.09;;;9.44;100.00
12775;BME280;6451;42.630;23.382;2022-11-12T08:22:59;95763.66;;;9.59;100.00
12775;BME280;6451;42.630;23.382;2022-11-12T08:25:26;95763.28;;;9.52;100.00
12775;BME280;6451;42.630;23.382;2022-11-12T08:27:56;95768.22;;;9.72;100.00
12775;BME280;6451;42.630;23.382;2022-11-12T08:30:25;95759.94;;;9.55;100.00
12775;BME280;6451;42.630;23.382;2022-11-12T08:32:56;95734.44;;;9.56;100.00
12775;BME280;6451;42.630;23.382;2022-11-12T08:35:23;95773.53;;;9.77;100.00
12775;BME280;6451;42.630;23.382;2022-11-12T08:37:51;95773.13;;;9.84;100.00
12775;BME280;6451;42.630;23.382;2022-11-12T08:40:17;95778.41;;;9.89;100.00
12775;BME280;6451;42.630;23.382;2022-11-12T08:42:44;95763.31;;;9.96;100.00
12775;BME280;6451;42.630;23.382;2022-11-12T08:45:11;95750.28;;;9.98;100.00
12775;BME280;6451;42.630;23.382;2022-11-12T08:47:40;95766.66;;;9.93;100.00
12775;BME280;6451;42.630;23.382;2022-11-12T08:50:07;95776.53;;;10.12;100.00
12775;BME280;6451;42.630;23.382;2022-11-12T08:52:35;95770.50;;;10.15;100.00
12775;BME280;6451;42.630;23.382;2022-11-12T08:55:02;95771.00;;;10.17;100.00
12775;BME280;6451;42.630;23.382;2022-11-12T08:57:30;95779.09;;;10.30;100.00
12775;BME280;6451;42.630;23.382;2022-11-12T08:59:57;95775.38;;;10.26;100.00
12775;BME280;6451;42.630;23.382;2022-11-12T09:02:24;95771.00;;;10.62;100.00
12775;BME280;6451;42.630;23.382;2022-11-12T09:04:52;95748.16;;;10.63;100.00
12775;BME280;6451;42.630;23.382;2022-11-12T09:07:19;95761.41;;;10.33;100.00
12775;BME280;6451;42.630;23.382;2022-11-12T09:09:46;95770.38;;;10.42;100.00
12775;BME280;6451;42.630;23.382;2022-11-12T09:12:13;95767.03;;;10.37;100.00
12775;BME280;6451;42.630;23.382;2022-11-12T09:14:43;95764.63;;;10.35;100.00
12775;BME280;6451;42.630;23.382;2022-11-12T09:17:10;95774.03;;;10.38;100.00
12775;BME280;6451;42.630;23.382;2022-11-12T09:19:38;95761.00;;;10.48;100.00
12775;BME280;6451;42.630;23.382;2022-11-12T09:22:06;95748.81;;;10.37;100.00
12775;BME280;6451;42.630;23.382;2022-11-12T09:24:33;95747.56;;;10.21;100.00
12775;BME280;6451;42.630;23.382;2022-11-12T09:27:00;95766.44;;;10.48;100.00
12775;BME280;6451;42.630;23.382;2022-11-12T09:29:27;95762.25;;;10.20;100.00
12775;BME280;6451;42.630;23.382;2022-11-12T09:31:54;95775.69;;;10.25;100.00
12775;BME280;6451;42.630;23.382;2022-11-12T09:34:22;95765.41;;;10.13;100.00
12775;BME280;6451;42.630;23.382;2022-11-12T09:36:49;95769.22;;;10.12;100.00
12775;BME280;6451;42.630;23.382;2022-11-12T09:39:17;95749.16;;;9.99;100.00
12775;BME280;6451;42.630;23.382;2022-11-12T09:41:45;95772.59;;;10.18;100.00
12775;BME280;6451;42.630;23.382;2022-11-12T09:44:14;95766.03;;;9.96;100.00
12775;BME280;6451;42.630;23.382;2022-11-12T09:46:47;95769.44;;;10.02;100.00
12775;BME280;6451;42.630;23.382;2022-11-12T09:49:18;95763.94;;;9.93;100.00
12775;BME280;6451;42.630;23.382;2022-11-12T09:51:49;95745.34;;;10.00;100.00
12775;BME280;6451;42.630;23.382;2022-11-12T09:54:22;95733.16;;;9.89;100.00
12775;BME280;6451;42.630;23.382;2022-11-12T09:56:49;95772.41;;;10.14;100.00
12775;BME280;6451;42.630;23.382;2022-11-12T09:59:16;95771.19;;;10.20;100.00
12775;BME280;6451;42.630;23.382;2022-11-12T10:01:58;95773.03;;;10.34;100.00
12775;BME280;6451;42.630;23.382;2022-11-12T10:07:38;95771.66;;;10.36;100.00
12775;BME280;6451;42.630;23.382;2022-11-12T10:10:13;95764.66;;;10.44;100.00
12775;BME280;6451;42.630;23.382;2022-11-12T10:12:52;95771.44;;;10.55;100.00
12775;BME280;6451;42.630;23.382;2022-11-12T10:15:36;95762.66;;;10.58;100.00
12775;BME280;6451;42.630;23.382;2022-11-12T10:18:28;95762.38;;;10.91;100.00
12775;BME280;6451;42.630;23.382;2022-11-12T10:21:03;95765.25;;;10.63;100.00
12775;BME280;6451;42.630;23.382;2022-11-12T10:23:37;95726.50;;;10.80;100.00
12775;BME280;6451;42.630;23.382;2022-11-12T10:26:11;95755.97;;;10.95;100.00
12775;BME280;6451;42.630;23.382;2022-11-12T10:28:42;95772.59;;;10.63;100.00
12775;BME280;6451;42.630;23.382;2022-11-12T10:31:12;95753.31;;;10.73;100.00
12775;BME280;6451;42.630;23.382;2022-11-12T10:33:40;95770.06;;;10.66;100.00
12775;BME280;6451;42.630;23.382;2022-11-12T10:36:16;95766.19;;;10.58;100.00
12775;BME280;6451;42.630;23.382;2022-11-12T10:38:47;95761.72;;;10.63;100.00
12775;BME280;6451;42.630;23.382;2022-11-12T10:41:21;95762.59;;;10.49;100.00
12775;BME280;6451;42.630;23.382;2022-11-12T10:43:56;95772.69;;;10.26;100.00
12775;BME280;6451;42.630;23.382;2022-11-12T10:46:25;95744.16;;;10.29;100.00
12775;BME280;6451;42.630;23.382;2022-11-12T10:48:56;95769.41;;;10.61;100.00
12775;BME280;6451;42.630;23.382;2022-11-12T10:51:25;95750.72;;;10.14;100.00
12775;BME280;6451;42.630;23.382;2022-11-12T10:53:53;95768.59;;;10.15;100.00
12775;BME280;6451;42.630;23.382;2022-11-12T10:56:26;95774.97;;;10.33;100.00
12775;BME280;6451;42.630;23.382;2022-11-12T10:59:09;95769.38;;;10.29;100.00
12775;BME280;6451;42.630;23.382;2022-11-12T11:01:36;95763.09;;;10.07;100.00
12775;BME280;6451;42.630;23.382;2022-11-12T11:04:03;95760.09;;;10.08;100.00
12775;BME280;6451;42.630;23.382;2022-11-12T11:06:30;95768.66;;;10.46;100.00
12775;BME280;6451;42.630;23.382;2022-11-12T11:09:12;95771.50;;;10.41;100.00
12775;BME280;6451;42.630;23.382;2022-11-12T11:11:49;95760.44;;;10.29;100.00
12775;BME280;6451;42.630;23.382;2022-11-12T11:14:25;95749.53;;;10.07;100.00
12775;BME280;6451;42.630;23.382;2022-11-12T11:16:56;95751.16;;;10.08;100.00
12775;BME280;6451;42.630;23.382;2022-11-12T11:19:30;95754.81;;;10.25;100.00
12775;BME280;6451;42.630;23.382;2022-11-12T11:22:27;95760.59;;;10.33;100.00
12775;BME280;6451;42.630;23.382;2022-11-12T11:25:18;95760.84;;;10.45;100.00
12775;BME280;6451;42.630;23.382;2022-11-12T11:28:00;95752.94;;;10.12;100.00
12775;BME280;6451;42.630;23.382;2022-11-12T11:30:29;95754.09;;;9.97;100.00
12775;BME280;6451;42.630;23.382;2022-11-12T11:33:22;95764.63;;;9.99;100.00
12775;BME280;6451;42.630;23.382;2022-11-12T11:36:06;95758.38;;;10.12;100.00
12775;BME280;6451;42.630;23.382;2022-11-12T11:38:48;95764.59;;;10.13;100.00
12775;BME280;6451;42.630;23.382;2022-11-12T11:41:43;95766.69;;;10.16;100.00
12775;BME280;6451;42.630;23.382;2022-11-12T11:44:20;95757.91;;;10.19;100.00
12775;BME280;6451;42.630;23.382;2022-11-12T11:47:05;95755.13;;;10.10;100.00
12775;BME280;6451;42.630;23.382;2022-11-12T11:49:59;95754.13;;;10.20;100.00
12775;BME280;6451;42.630;23.382;2022-11-12T11:52:42;95757.91;;;10.19;100.00
12775;BME280;6451;42.630;23.382;2022-11-12T11:55:30;95762.03;;;10.30;100.00
12775;BME280;6451;42.630;23.382;2022-11-12T11:58:13;95738.56;;;10.12;100.00
12775;BME280;6451;42.630;23.382;2022-11-12T12:00:47;95750.53;;;10.33;100.00
12775;BME280;6451;42.630;23.382;2022-11-12T12:03:20;95746.22;;;10.32;100.00
12775;BME280;6451;42.630;23.382;2022-11-12T12:06:01;95752.38;;;10.46;100.00
12775;BME280;6451;42.630;23.382;2022-11-12T12:08:39;95740.84;;;10.41;100.00
12775;BME280;6451;42.630;23.382;2022-11-12T12:11:15;95738.78;;;10.38;100.00
12775;BME280;6451;42.630;23.382;2022-11-12T12:13:56;95716.00;;;10.47;100.00
12775;BME280;6451;42.630;23.382;2022-11-12T12:16:44;95720.72;;;10.73;100.00
12775;BME280;6451;42.630;23.382;2022-11-12T12:19:24;95726.94;;;10.65;100.00
12775;BME280;6451;42.630;23.382;2022-11-12T12:21:56;95721.72;;;10.77;100.00
12775;BME280;6451;42.630;23.382;2022-11-12T12:24:26;95721.66;;;10.60;100.00
12775;BME280;6451;42.630;23.382;2022-11-12T12:26:57;95720.88;;;10.68;100.00
12775;BME280;6451;42.630;23.382;2022-11-12T12:29:30;95716.78;;;10.79;100.00
12775;BME280;6451;42.630;23.382;2022-11-12T12:32:05;95746.16;;;10.77;100.00
12775;BME280;6451;42.630;23.382;2022-11-12T12:34:40;95743.31;;;10.51;100.00
12775;BME280;6451;42.630;23.382;2022-11-12T12:37:16;95733.00;;;10.62;100.00
12775;BME280;6451;42.630;23.382;2022-11-12T12:39:52;95698.94;;;10.24;100.00
12775;BME280;6451;42.630;23.382;2022-11-12T12:42:25;95720.50;;;10.52;100.00
12775;BME280;6451;42.630;23.382;2022-11-12T12:44:57;95727.88;;;10.29;100.00
12775;BME280;6451;42.630;23.382;2022-11-12T12:47:35;95752.69;;;10.45;100.00
12775;BME280;6451;42.630;23.382;2022-11-12T12:50:09;95756.47;;;10.13;100.00
12775;BME280;6451;42.630;23.382;2022-11-12T12:53:00;95753.00;;;9.98;100.00
12775;BME280;6451;42.630;23.382;2022-11-12T12:55:38;95760.63;;;9.96;100.00
12775;BME280;6451;42.630;23.382;2022-11-12T12:58:15;95743.63;;;9.82;100.00
12775;BME280;6451;42.630;23.382;2022-11-12T13:00:48;95757.59;;;9.75;100.00
12775;BME280;6451;42.630;23.382;2022-11-12T13:03:54;95758.88;;;9.78;100.00
12775;BME280;6451;42.630;23.382;2022-11-12T13:06:26;95759.28;;;9.71;100.00
12775;BME280;6451;42.630;23.382;2022-11-12T13:08:59;95746.88;;;9.57;100.00
12775;BME280;6451;42.630;23.382;2022-11-12T13:11:52;95761.78;;;9.45;100.00
12775;BME280;6451;42.630;23.382;2022-11-12T13:17:49;95753.16;;;9.30;100.00
12775;BME280;6451;42.630;23.382;2022-11-12T13:20:32;95776.03;;;9.37;100.00
12775;BME280;6451;42.630;23.382;2022-11-12T13:23:00;95753.25;;;9.11;100.00